Flight Track Log - Related Links

Times and Time Zones

All times are in EDT time to prevent confusion due to time zone crossing. See the TAI590 flight status page for this flight to view local times or setup timezone preferences in your user account.


Time Position Orientation Groundspeed Altitude Reporting Facility
EDT Latitude Longitude Course Direction KTS MPH feet Rate Location/Type
Mon 11:23:00 PM 15.5984 -88.2685 26° Northeast  Level FlightAware Approximate
Mon 11:24:00 PM 15.7734 -88.1958 19° North  Level FlightAware Approximate
Mon 11:25:00 PM 15.9458 -88.1352 19° North  Level FlightAware Approximate
Mon 11:26:00 PM 16.1182 -88.0744 19° North  Level FlightAware Approximate
Mon 11:27:00 PM 16.2905 -88.0135 19° North  Level FlightAware Approximate
Mon 11:28:00 PM 16.4629 -87.9526 19° North  Level FlightAware Approximate
Mon 11:29:00 PM 16.6352 -87.8915 19° North  Level FlightAware Approximate
Mon 11:30:00 PM 16.8075 -87.8303 19° North  Level FlightAware Approximate
Mon 11:31:00 PM 16.9797 -87.7690 19° North  Level FlightAware Approximate
Mon 11:32:00 PM 17.1520 -87.7076 19° North  Level FlightAware Approximate
Mon 11:33:00 PM 17.3239 -87.6452 20° North  Level FlightAware Approximate
Mon 11:34:00 PM 17.4952 -87.5807 20° North  Level FlightAware Approximate
Mon 11:35:00 PM 17.6665 -87.5162 20° North  Level FlightAware Approximate
Mon 11:36:00 PM 17.8378 -87.4516 20° North  Level FlightAware Approximate
Mon 11:37:00 PM 18.0090 -87.3868 20° North  Level FlightAware Approximate
Mon 11:38:00 PM 18.1802 -87.3219 20° North  Level FlightAware Approximate
Mon 11:39:00 PM 18.3514 -87.2569 20° North  Level FlightAware Approximate
Mon 11:40:00 PM 18.5226 -87.1917 20° North  Level FlightAware Approximate
Mon 11:41:00 PM 18.6937 -87.1264 20° North  Level FlightAware Approximate
Mon 11:42:00 PM 18.8649 -87.0612 19° North  Level FlightAware Approximate
Mon 11:43:00 PM 19.0368 -86.9978 19° North  Level FlightAware Approximate
Mon 11:44:00 PM 19.2086 -86.9344 19° North  Level FlightAware Approximate
Mon 11:45:00 PM 19.3804 -86.8708 19° North  Level FlightAware Approximate
Mon 11:46:00 PM 19.5522 -86.8070 19° North  Level FlightAware Approximate
Mon 11:47:00 PM 19.7239 -86.7431 19° North  Level FlightAware Approximate
Mon 11:48:00 PM 19.8956 -86.6791 19° North  Level FlightAware Approximate
Mon 11:49:00 PM 20.0673 -86.6150 19° North  Level FlightAware Approximate
Mon 11:50:00 PM 20.2390 -86.5507 19° North  Level FlightAware Approximate
Mon 11:51:00 PM 20.4107 -86.4862 19° North  Level FlightAware Approximate
Mon 11:52:00 PM 20.5823 -86.4216 19° North  Level FlightAware Approximate
Mon 11:53:00 PM 20.7540 -86.3569 19° North  Level FlightAware Approximate
Mon 11:54:00 PM 20.9255 -86.2920 19° North  Level FlightAware Approximate
Mon 11:55:00 PM 21.0971 -86.2270 19° North  Level FlightAware Approximate
Mon 11:56:00 PM 21.2687 -86.1618 19° North  Level FlightAware Approximate
Mon 11:57:00 PM 21.4402 -86.0965 20° North  Level FlightAware Approximate
Mon 11:58:00 PM 21.6117 -86.0310 20° North  Level FlightAware Approximate
Mon 11:59:00 PM 21.7831 -85.9654 20° North  Level FlightAware Approximate
Tue 12:00:00 AM 21.9543 -85.8989 20° North  Level FlightAware Approximate
Tue 12:01:00 AM 22.1254 -85.8318 20° North  Level FlightAware Approximate
Tue 12:01:59 AM 20.0268 -87.4247 360° North 462 532 35,000  Level FlightAware ADS-B (MMUN / CUN)
Tue 12:02:00 AM 22.2963 -85.7644 20° North  Level FlightAware Approximate
Tue 12:02:45 AM 20.1249 -87.3945 16° North 462 532 35,000  Level FlightAware ADS-B (MMUN / CUN)
Tue 12:03:35 AM 20.2291 -87.3626 16° North 464 534 35,000  Level FlightAware ADS-B (MMUN / CUN)
Tue 12:04:05 AM 20.2893 -87.3441 16° North 467 537 35,000  Level FlightAware ADS-B (MMUN / CUN)
Tue 12:04:35 AM 20.3498 -87.3255 16° North 464 534 35,000  Level FlightAware ADS-B (MMUN / CUN)
Tue 12:05:04 AM 20.4074 -87.3077 360° North 461 531 35,000  Level FlightAware ADS-B (MMUN / CUN)
Tue 12:05:34 AM 20.4660 -87.2898 360° North 460 529 35,000  Level FlightAware ADS-B (MMUN / CUN)
Tue 12:06:04 AM 20.5243 -87.2718 360° North 459 528 35,000  Level FlightAware ADS-B (MMUN / CUN)
Tue 12:06:34 AM 20.5825 -87.2538 360° North 457 526 35,000  Level FlightAware ADS-B (MMUN / CUN)
Tue 12:07:02 AM 20.6378 -87.2368 360° North 458 527 35,000 -103 Level FlightAware ADS-B (MMUN / CUN)
Tue 12:07:32 AM 20.6945 -87.2191 360° North 456 525 34,900  Descending FlightAware ADS-B (MMUN / CUN)
Tue 12:08:05 AM 20.7598 -87.1988 16° North 454 522 35,000 95 Climbing FlightAware ADS-B (MMUN / CUN)
Tue 12:08:35 AM 20.8172 -87.1812 16° North 455 524 35,000  Level FlightAware ADS-B (MMUN / CUN)
Tue 12:09:04 AM 20.8743 -87.1635 360° North 457 526 35,000  Level FlightAware ADS-B (MMUN / CUN)
Tue 12:09:35 AM 20.9345 -87.1446 16° North 460 529 35,000  Level FlightAware ADS-B (MMUN / CUN)
Tue 12:10:03 AM 20.9902 -87.1274 360° North 462 532 35,000 105 Level FlightAware ADS-B (MMUN / CUN)
Tue 12:10:32 AM 21.0472 -87.1097 360° North 462 532 35,100 98 Climbing FlightAware ADS-B (MMUN / CUN)
Tue 12:11:04 AM 21.1085 -87.0905 360° North 463 533 35,100 -98 Level FlightAware ADS-B (MMUN / CUN)
Tue 12:11:33 AM 21.1665 -87.0725 360° North 462 532 35,000 -100 Descending FlightAware ADS-B (MMUN / CUN)
Tue 12:12:04 AM 21.2269 -87.0538 360° North 461 531 35,000  Level FlightAware ADS-B (MMUN / CUN)
Tue 12:12:34 AM 21.2861 -87.0353 360° North 460 529 35,000  Level FlightAware ADS-B (MMUN / CUN)
Tue 12:13:04 AM 21.3409 -87.0184 360° North 461 531 35,000  Level FlightAware ADS-B (MMUN / CUN)
Tue 12:13:32 AM 21.4000 -87.0001 360° North 461 531 35,000  Level FlightAware ADS-B (MMUN / CUN)
Tue 12:14:04 AM 21.4604 -86.9809 360° North 459 528 35,000  Level FlightAware ADS-B (MMUN / CUN)
Tue 12:14:32 AM 21.5143 -86.9642 360° North 459 528 35,000  Level FlightAware ADS-B (MMUN / CUN)
Tue 12:15:04 AM 21.5787 -86.9439 360° North 458 527 35,000  Level FlightAware ADS-B (MMUN / CUN)
Tue 12:15:34 AM 21.6360 -86.9259 360° North 457 526 35,000  Level FlightAware ADS-B (MMUN / CUN)
Tue 12:16:04 AM 21.6949 -86.9073 360° North 458 527 35,000  Level FlightAware ADS-B (MMUN / CUN)
Tue 12:16:33 AM 21.7507 -86.8900 360° North 458 527 35,000  Level FlightAware ADS-B (MMUN / CUN)
Tue 12:17:04 AM 21.8116 -86.8708 360° North 459 528 35,000  Level FlightAware ADS-B (MMUN / CUN)
Tue 12:17:33 AM 21.8669 -86.8535 360° North 459 528 35,000  Level FlightAware ADS-B (MMUN / CUN)
Tue 12:18:04 AM 21.9301 -86.8337 360° North 460 529 35,000  Level FlightAware ADS-B (MMUN / CUN)
Tue 12:18:34 AM 21.9901 -86.8147 360° North 460 529 35,000  Level FlightAware ADS-B (MMUN / CUN)
Tue 12:19:03 AM 22.0478 -86.7963 360° North 461 531 35,000  Level FlightAware ADS-B (MMUN / CUN)
Tue 12:19:35 AM 22.1100 -86.7767 16° North 462 532 35,000  Level FlightAware ADS-B (MMUN / CUN)
Tue 12:20:03 AM 22.1673 -86.7587 360° North 462 532 35,000  Level FlightAware ADS-B (MMUN / CUN)
Tue 12:20:35 AM 22.2296 -86.7390 16° North 462 532 35,000  Level FlightAware ADS-B (MMUN / CUN)
Tue 12:21:05 AM 22.2926 -86.7191 16° North 462 532 35,000  Level FlightAware ADS-B (MMUN / CUN)
Tue 12:21:33 AM 22.3494 -86.7012 360° North 461 531 35,000  Level FlightAware ADS-B (MMUN / CUN)
Tue 12:22:04 AM 22.4102 -86.6816 360° North 460 529 35,000  Level FlightAware ADS-B (MMUN / CUN)
Tue 12:22:35 AM 22.4730 -86.6617 16° North 461 531 35,000  Level FlightAware ADS-B (MMUN / CUN)
Tue 12:23:02 AM 22.5273 -86.6444 360° North 460 529 35,000  Level FlightAware ADS-B (MMUN / CUN)
Tue 12:23:34 AM 22.5910 -86.6241 360° North 459 528 35,000  Level FlightAware ADS-B (MMUN / CUN)
Tue 12:24:05 AM 22.6452 -86.6071 16° North 459 528 35,000  Level FlightAware ADS-B (MMUN / CUN)
Tue 12:24:33 AM 22.7096 -86.5869 360° North 459 528 35,000  Level FlightAware ADS-B (MMUN / CUN)
Tue 12:25:04 AM 22.7712 -86.5671 360° North 459 528 35,000  Level FlightAware ADS-B (MMUN / CUN)
Tue 12:25:33 AM 22.8307 -86.5481 360° North 460 529 35,000  Level FlightAware ADS-B (MMUN / CUN)
Tue 12:26:05 AM 22.8951 -86.5275 16° North 461 531 35,000  Level FlightAware ADS-B (MMUN / CUN)
Tue 12:26:35 AM 22.9542 -86.5086 16° North 461 531 35,000  Level FlightAware ADS-B (MMUN / CUN)
Tue 12:27:05 AM 23.0148 -86.4894 16° North 461 531 35,000  Level FlightAware ADS-B (MMUN / CUN)
Tue 12:27:34 AM 23.0500 -86.4780 360° North 459 528 35,000  Level FlightAware ADS-B (MMUN / CUN)
Tue 12:28:04 AM 23.1353 -86.4508 360° North 457 526 35,000  Level FlightAware ADS-B (MMUN / CUN)
Tue 12:28:35 AM 23.1970 -86.4308 17° North 456 525 35,000  Level FlightAware ADS-B (MMUN / CUN)
Tue 12:29:04 AM 23.2445 -86.4156 360° North 459 528 35,000  Level FlightAware ADS-B (MMUN / CUN)
Tue 12:29:35 AM 23.3181 -86.3920 16° North 461 531 35,000  Level FlightAware ADS-B (MMUN / CUN)
Tue 12:29:46 AM 23.3302 -86.3881 360° North 461 531 35,000  Level FlightAware ADS-B (MMUN / CUN)
Tue 12:30:39 AM 23.4472 -86.3503 360° North 461 531 35,000  Level FlightAware ADS-B (MMUN / CUN)
Tue 12:31:05 AM 23.5015 -86.3328 360° North 460 529 35,000  Level FlightAware ADS-B (MMUN / CUN)
Tue 12:33:00 AM 23.7313 -86.2586 16° North 459 528 35,000  Level FlightAware ADS-B (MMUN / CUN)
Tue 12:33:07 AM 23.7423 -86.2552 360° North 458 527 35,000  Level FlightAware ADS-B (MMUN / CUN)
Tue 12:33:49 AM 23.8082 -86.2338 360° North 457 526 35,000  Level FlightAware ADS-B (MMUN / CUN)
Tue 12:35:39 AM 24.0563 -86.1462 360° North 461 531 35,000  Level FlightAware ADS-B (MMUN / CUN)
Tue 12:36:08 AM 24.1057 -86.1198 360° North 461 531 35,000 469 Level FlightAware ADS-B (MMUN / CUN)
Tue 12:36:43 AM 24.1819 -86.0803 360° North 461 531 35,500 837 Climbing FlightAware ADS-B (MMUN / CUN)
Tue 12:37:34 AM 24.2727 -86.0329 360° North 457 526 36,200 750 Climbing FlightAware ADS-B (MMUN / CUN)
Tue 12:38:43 AM 24.4082 -85.9619 360° North 454 522 37,000 615 Climbing FlightAware ADS-B (MMUN / CUN)
Tue 12:38:52 AM 24.4286 -85.9514 360° North 455 524 37,000  Level FlightAware ADS-B (MMUN / CUN)
Tue 12:43:49 AM 25.0212 -85.6376 360° North 453 521 37,000  Level FlightAware ADS-B
Tue 12:45:29 AM 25.2115 -85.5360 360° North 454 522 37,000  Level FlightAware ADS-B
Tue 12:47:06 AM 25.3954 -85.4374 360° North 453 521 37,000  Level FlightAware ADS-B
Tue 12:47:42 AM 25.4622 -85.4016 360° North 453 521 37,000  Level FlightAware ADS-B
Tue 12:48:43 AM 25.5782 -85.3380 360° North 452 520 37,000  Level FlightAware ADS-B
Tue 12:49:15 AM 25.6369 -85.3058 360° North 450 518 37,000  Level FlightAware ADS-B
Tue 12:50:11 AM 25.7351 -85.2522 360° North 452 520 37,000  Level FlightAware ADS-B
Tue 12:50:43 AM 25.8026 -85.2151 360° North 451 519 37,000  Level FlightAware ADS-B
Tue 12:51:13 AM 25.8563 -85.1852 360° North 453 521 37,000  Level FlightAware ADS-B
Tue 12:53:28 AM 26.1178 -85.0414 360° North 455 524 37,000  Level FlightAware ADS-B
Tue 12:54:15 AM 26.2057 -84.9930 360° North 455 524 37,000  Level FlightAware ADS-B
Tue 12:54:45 AM 26.2659 -84.9595 360° North 453 521 37,000  Level FlightAware ADS-B
Tue 12:55:16 AM 26.3253 -84.9266 360° North 454 522 37,000  Level FlightAware ADS-B
Tue 12:55:44 AM 26.3783 -84.8972 360° North 454 522 37,000  Level FlightAware ADS-B
Tue 12:56:31 AM 26.4678 -84.8473 360° North 453 521 37,000  Level FlightAware ADS-B
Tue 12:57:19 AM 26.5586 -84.7966 360° North 452 520 37,000  Level FlightAware ADS-B
Tue 12:58:01 AM 26.6348 -84.7540 360° North 453 521 37,000  Level FlightAware ADS-B
Tue 12:58:58 AM 26.7507 -84.6897 360° North 453 521 37,000  Level FlightAware ADS-B
Tue 12:59:32 AM 26.8162 -84.6529 360° North 454 522 37,000  Level FlightAware ADS-B
Tue 01:00:14 AM 26.8973 -84.6074 360° North 455 524 37,000  Level FlightAware ADS-B
Tue 01:00:47 AM 26.9615 -84.5713 360° North 455 524 37,000  Level FlightAware ADS-B
Tue 01:01:44 AM 27.0737 -84.5082 360° North 455 524 37,000  Level FlightAware ADS-B
Tue 01:02:04 AM 27.1003 -84.4931 360° North 455 524 37,000  Level FlightAware ADS-B
Tue 01:02:28 AM 27.1585 -84.4605 360° North 455 524 37,000  Level FlightAware ADS-B
Tue 01:04:01 AM 27.3405 -84.3575 360° North 455 524 37,000  Level FlightAware ADS-B
Tue 01:05:04 AM 27.4605 -84.2893 360° North 455 524 37,000  Level FlightAware ADS-B
Tue 01:05:34 AM 27.5223 -84.2544 360° North 454 522 37,000  Level FlightAware ADS-B
Tue 01:06:33 AM 27.6285 -84.1941 360° North 454 522 37,000  Level FlightAware ADS-B
Tue 01:07:05 AM 27.6988 -84.1541 360° North 454 522 37,000  Level FlightAware ADS-B
Tue 01:08:35 AM 27.8752 -84.0528 360° North 454 522 37,000  Level FlightAware ADS-B
Tue 01:09:01 AM 27.9205 -84.0269 360° North 454 522 37,000  Level FlightAware ADS-B
Tue 01:09:52 AM 27.9883 -83.9897 360° North 471 542 37,000  Level Miami Center
Tue 01:10:52 AM 28.1056 -83.9211 27° Northeast 472 543 37,000  Level Miami Center
Tue 01:11:27 AM 28.1606 -83.8883 28° Northeast 449 517 37,000  Level Jacksonville Center
Tue 01:12:27 AM 28.2781 -83.8211 27° Northeast 454 522 37,000 -50 Level Jacksonville Center
Tue 01:13:27 AM 28.3994 -83.7517 27° Northeast 462 532 36,900 -50 Descending Jacksonville Center
Tue 01:14:27 AM 28.5147 -83.6839 27° Northeast 468 539 36,900 50 Level Jacksonville Center
Tue 01:15:27 AM 28.6319 -83.6164 27° Northeast 468 539 37,000 50 Climbing Jacksonville Center
Tue 01:16:27 AM 28.7492 -83.5486 27° Northeast 468 539 37,000  Level Jacksonville Center
Tue 01:21:59 AM 29.4221 -83.1526 27° Northeast 455 524 37,000  Level FlightAware ADS-B
Tue 01:22:20 AM 29.4624 -83.1291 27° Northeast 455 524 37,000  Level FlightAware ADS-B
Tue 01:22:40 AM 29.5052 -83.1039 27° Northeast 457 526 37,000  Level FlightAware ADS-B
Tue 01:24:58 AM 29.7757 -82.9425 27° Northeast 454 522 37,000  Level FlightAware ADS-B
Tue 01:26:09 AM 29.9106 -82.8620 27° Northeast 458 527 37,000  Level FlightAware ADS-B
Tue 01:26:59 AM 30.0140 -82.8000 27° Northeast 457 526 37,000  Level FlightAware ADS-B
Tue 01:28:20 AM 30.1695 -82.7066 27° Northeast 456 525 37,000  Level FlightAware ADS-B
Tue 01:29:00 AM 30.2482 -82.6589 28° Northeast 459 528 37,000  Level FlightAware ADS-B
Tue 01:29:40 AM 30.3257 -82.6124 27° Northeast 455 524 37,000  Level FlightAware ADS-B
Tue 01:31:00 AM 30.4788 -82.5195 28° Northeast 454 522 37,000  Level FlightAware ADS-B
Tue 01:32:47 AM 30.6858 -82.3941 28° Northeast 456 525 37,000  Level FlightAware ADS-B
Tue 01:33:27 AM 30.7561 -82.3536 28° Northeast 462 532 37,000  Level Jacksonville Center
Tue 01:34:27 AM 30.8728 -82.2825 28° Northeast 462 532 37,000  Level Jacksonville Center
Tue 01:35:27 AM 30.9850 -82.2142 28° Northeast 462 532 37,000 -50 Level Jacksonville Center
Tue 01:36:27 AM 31.0975 -82.1428 29° Northeast 457 526 36,900 -50 Descending Jacksonville Center
Tue 01:37:27 AM 31.2097 -82.0764 27° Northeast 452 520 36,900  Level Jacksonville Center
Tue 01:38:27 AM 31.3242 -82.0050 28° Northeast 446 513 36,900 50 Level Jacksonville Center
Tue 01:39:27 AM 31.4342 -81.9381 27° Northeast 446 513 37,000 50 Climbing Jacksonville Center
Tue 01:40:27 AM 31.5361 -81.8736 28° Northeast 454 522 37,000  Level Jacksonville Center
Tue 01:41:27 AM 31.6608 -81.7967 28° Northeast 454 522 37,000  Level Jacksonville Center
Tue 01:42:27 AM 31.7728 -81.7269 28° Northeast 447 514 37,000  Level Jacksonville Center
Tue 01:43:27 AM 31.8744 -81.6644 28° Northeast 457 526 37,000  Level Jacksonville Center
Tue 01:44:27 AM 31.9989 -81.5844 29° Northeast 457 526 37,000  Level Jacksonville Center
Tue 01:50:40 AM 32.7046 -81.1334 28° Northeast 456 525 37,000  Level FlightAware ADS-B
Tue 01:51:50 AM 32.8355 -81.0491 28° Northeast 457 526 37,000  Level FlightAware ADS-B
Tue 01:52:28 AM 32.9061 -81.0040 28° Northeast 454 522 37,000  Level FlightAware ADS-B
Tue 01:54:23 AM 33.1189 -80.8663 28° Northeast 454 522 37,000  Level FlightAware ADS-B
Tue 01:55:10 AM 33.2062 -80.8101 28° Northeast 456 525 37,000  Level FlightAware ADS-B
Tue 01:56:52 AM 33.3953 -80.6869 29° Northeast 455 524 37,000  Level FlightAware ADS-B
Tue 01:57:23 AM 33.4525 -80.6496 29° Northeast 456 525 37,000  Level FlightAware ADS-B
Tue 01:58:12 AM 33.5368 -80.5942 29° Northeast 456 525 37,000  Level FlightAware ADS-B
Tue 01:58:42 AM 33.6007 -80.5523 29° Northeast 457 526 37,000  Level FlightAware ADS-B
Tue 01:59:23 AM 33.6755 -80.5032 29° Northeast 455 524 37,000  Level FlightAware ADS-B
Tue 02:00:21 AM 33.7841 -80.4318 29° Northeast 458 527 37,000  Level FlightAware ADS-B
Tue 02:00:52 AM 33.8415 -80.3940 29° Northeast 456 525 37,000  Level FlightAware ADS-B
Tue 02:01:38 AM 33.9278 -80.3370 29° Northeast 457 526 37,000  Level FlightAware ADS-B
Tue 02:02:14 AM 33.9941 -80.2932 28° Northeast 456 525 37,000  Level FlightAware ADS-B
Tue 02:03:22 AM 34.1204 -80.2093 29° Northeast 457 526 37,000  Level FlightAware ADS-B
Tue 02:04:10 AM 34.2097 -80.1499 29° Northeast 455 524 37,000  Level FlightAware ADS-B
Tue 02:04:43 AM 34.2691 -80.1105 29° Northeast 455 524 37,000  Level FlightAware ADS-B
Tue 02:05:13 AM 34.3254 -80.0727 29° Northeast 455 524 37,000 -41 Level FlightAware ADS-B
Tue 02:07:09 AM 34.5377 -79.9302 29° Northeast 453 521 36,900  Descending FlightAware ADS-B
Tue 02:07:49 AM 34.6097 -79.8818 29° Northeast 455 524 37,000 69 Climbing FlightAware ADS-B
Tue 02:08:36 AM 34.7011 -79.8198 29° Northeast 455 524 37,000  Level FlightAware ADS-B
Tue 02:09:15 AM 34.7714 -79.7726 29° Northeast 454 522 37,000  Level FlightAware ADS-B
Tue 02:09:46 AM 34.8322 -79.7311 29° Northeast 456 525 37,000  Level FlightAware ADS-B
Tue 02:09:53 AM 34.8244 -79.7364 209° Southwest 455 524 37,000  Level FlightAware ADS-B
Tue 02:10:07 AM 34.8721 -79.7043 29° Northeast 455 524 37,000  Level FlightAware ADS-B
Tue 02:10:36 AM 34.9257 -79.6677 29° Northeast 456 525 37,000  Level FlightAware ADS-B
Tue 02:10:46 AM 34.9468 -79.6533 29° Northeast 455 524 37,000  Level FlightAware ADS-B
Tue 02:11:02 AM 34.9775 -79.6327 27° Northeast 455 524 37,000  Level FlightAware ADS-B
Tue 02:11:40 AM 35.0481 -79.5843 29° Northeast 457 526 37,000  Level FlightAware ADS-B
Tue 02:12:16 AM 35.1156 -79.5384 29° Northeast 457 526 37,000  Level FlightAware ADS-B
Tue 02:12:56 AM 35.1883 -79.4883 29° Northeast 459 528 37,000  Level FlightAware ADS-B
Tue 02:13:36 AM 35.2652 -79.4358 29° Northeast 461 531 37,000  Level FlightAware ADS-B
Tue 02:13:56 AM 35.3006 -79.4116 29° Northeast 460 529 37,000  Level FlightAware ADS-B
Tue 02:14:36 AM 35.3780 -79.3580 29° Northeast 456 525 37,000  Level FlightAware ADS-B
Tue 02:14:56 AM 35.4098 -79.3366 29° Northeast 457 526 37,000  Level FlightAware ADS-B
Tue 02:15:11 AM 35.4221 -79.3278 210° Southwest 457 526 37,000  Level FlightAware ADS-B
Tue 02:15:34 AM 35.4852 -79.2842 29° Northeast 454 522 37,000  Level FlightAware ADS-B
Tue 02:16:16 AM 35.5639 -79.2298 29° Northeast 452 520 37,000 -77 Level FlightAware ADS-B
Tue 02:16:52 AM 35.6259 -79.1869 30° Northeast 452 520 36,900  Descending FlightAware ADS-B
Tue 02:17:26 AM 35.6839 -79.1467 29° Northeast 453 521 37,000 71 Climbing FlightAware ADS-B
Tue 02:18:16 AM 35.7528 -79.0986 30° Northeast 455 524 37,000  Level FlightAware ADS-B
Tue 02:18:52 AM 35.8307 -79.0444 29° Northeast 455 524 37,000  Level FlightAware ADS-B
Tue 02:19:36 AM 35.9275 -78.9766 30° Northeast 457 526 37,000  Level FlightAware ADS-B
Tue 02:20:11 AM 35.9933 -78.9305 30° Northeast 455 524 37,000  Level FlightAware ADS-B
Tue 02:20:52 AM 36.0684 -78.8776 30° Northeast 456 525 37,000  Level FlightAware ADS-B
Tue 02:21:36 AM 36.1191 -78.8419 30° Northeast 454 522 37,000  Level FlightAware ADS-B
Tue 02:22:12 AM 36.2161 -78.7737 30° Northeast 451 519 37,000  Level FlightAware ADS-B
Tue 02:22:48 AM 36.2797 -78.7289 29° Northeast 455 524 37,000  Level FlightAware ADS-B
Tue 02:24:16 AM 36.4454 -78.6115 30° Northeast 458 527 37,000  Level FlightAware ADS-B
Tue 02:25:35 AM 36.5831 -78.5128 30° Northeast 461 531 37,000  Level Washington Center
Tue 02:26:35 AM 36.6786 -78.4456 29° Northeast 461 531 37,000 -1,191 Level Washington Center
Tue 02:31:58 AM 37.2920 -78.0023 29° Northeast 474 545 29,400 -1,504 Descending FlightAware ADS-B (KCHO)
Tue 02:32:34 AM 37.3728 -77.9419 29° Northeast 482 555 28,000 -2,629 Descending Washington Center
Tue 02:38:10 AM 37.9778 -77.5660 25° Northeast 746 858 13,100 -2,655 Descending FlightAware ADS-B
Tue 02:38:31 AM 38.0120 -77.5460 25° Northeast 712 819 12,200 -2,301 Descending FlightAware ADS-B
Tue 02:39:23 AM 38.0947 -77.4967 25° Northeast 589 678 10,300 -1,340 Descending FlightAware ADS-B
Tue 02:40:05 AM 38.1541 -77.4617 25° Northeast 390 449 10,100 -625 Descending FlightAware ADS-B
Tue 02:41:47 AM 38.2782 -77.3877 25° Northeast 321 369 8,800 -726 Descending FlightAware ADS-B
Tue 02:42:09 AM 38.3040 -77.3724 25° Northeast 321 369 8,600 -689 Descending FlightAware ADS-B
Tue 02:42:48 AM 38.3526 -77.3534 16° North 304 350 8,100 -677 Descending FlightAware ADS-B
Tue 02:43:11 AM 38.3833 -77.3549 358° North 287 330 7,900 -558 Descending FlightAware ADS-B
Tue 02:43:31 AM 38.4097 -77.3563 358° North 283 326 7,700 -600 Descending FlightAware ADS-B
Tue 02:43:51 AM 38.4363 -77.3575 358° North 280 322 7,500 -585 Descending FlightAware ADS-B
Tue 02:44:12 AM 38.4636 -77.3589 358° North 284 327 7,300 -732 Descending FlightAware ADS-B
Tue 02:44:32 AM 38.4911 -77.3601 358° North 286 329 7,000 -750 Descending FlightAware ADS-B
Tue 02:44:52 AM 38.5165 -77.3613 358° North 288 331 6,800 -600 Descending FlightAware ADS-B
Tue 02:45:12 AM 38.5419 -77.3623 358° North 288 331 6,600 -769 Descending FlightAware ADS-B
Tue 02:45:31 AM 38.5668 -77.3633 358° North 285 328 6,300 -750 Descending FlightAware ADS-B
Tue 02:45:52 AM 38.5925 -77.3642 358° North 289 333 6,100 -732 Descending FlightAware ADS-B
Tue 02:46:12 AM 38.6178 -77.3633 North 285 328 5,800 -923 Descending FlightAware ADS-B
Tue 02:46:31 AM 38.6408 -77.3625 North 283 326 5,500 -750 Descending FlightAware ADS-B
Tue 02:46:52 AM 38.6671 -77.3614 North 278 320 5,300 -769 Descending FlightAware ADS-B
Tue 02:47:10 AM 38.6904 -77.3604 North 272 313 5,000 -900 Descending FlightAware ADS-B (KDAA)
Tue 02:47:12 AM 38.6930 -77.3602 North 275 316 5,000 -923 Level FlightAware ADS-B
Tue 02:47:23 AM 38.7072 -77.3597 360° North 272 313 4,800 -900 Descending FlightAware ADS-B (KDAA)
Tue 02:47:32 AM 38.7187 -77.3594 North 267 307 4,700 -600 Descending FlightAware ADS-B
Tue 02:47:43 AM 38.7326 -77.3589 360° North 265 305 4,600 -632 Descending FlightAware ADS-B (KDAA)
Tue 02:47:51 AM 38.7419 -77.3587 North 267 307 4,500 -857 Descending FlightAware ADS-B
Tue 02:47:57 AM 38.7488 -77.3583 360° North 258 297 4,400 -857 Descending FlightAware ADS-B (KDAA)
Tue 02:48:12 AM 38.7675 -77.3577 North 269 310 4,200 -600 Descending FlightAware ADS-B
Tue 02:48:17 AM 38.7740 -77.3575 360° North 251 289 4,200 -300 Level FlightAware ADS-B (KDAA)
Tue 02:48:32 AM 38.7907 -77.3570 North 271 312 4,100 -571 Descending FlightAware ADS-B
Tue 02:48:38 AM 38.7979 -77.3566 360° North 246 283 4,000 -600 Descending FlightAware ADS-B (KDAA)
Tue 02:48:52 AM 38.8143 -77.3561 North 275 316 3,900 -375 Descending FlightAware ADS-B
Tue 02:48:54 AM 38.8162 -77.3560 360° North 241 277 3,900 -333 Level FlightAware ADS-B (KDAA)
Tue 02:49:10 AM 38.8344 -77.3553 North 275 316 3,800 -286 Descending FlightAware ADS-B
Tue 02:49:15 AM 38.8399 -77.3551 North 239 275 3,800  Level FlightAware ADS-B (KDAA)
Tue 02:49:27 AM 38.8530 -77.3546 360° North 237 273 3,800 -400 Level FlightAware ADS-B (KDAA)
Tue 02:49:30 AM 38.8567 -77.3544 North 269 310 3,700 -333 Descending FlightAware ADS-B
Tue 02:49:45 AM 38.8724 -77.3539 North 264 304 3,700  Level FlightAware ADS-B
Tue 02:49:52 AM 38.8816 -77.3536 360° North 236 272 3,700 -182 Level FlightAware ADS-B (KDAA)
Tue 02:50:18 AM 38.9091 -77.3525 360° North 235 270 3,600 -207 Descending FlightAware ADS-B (KDAA)
Tue 02:50:21 AM 38.9108 -77.3525 North 253 291 3,600 -400 Level FlightAware ADS-B
Tue 02:50:33 AM 38.9261 -77.3519 360° North 233 268 3,500 -500 Descending FlightAware ADS-B (KDAA)
Tue 02:50:57 AM 38.9520 -77.3508 360° North 224 258 3,300 -585 Descending FlightAware ADS-B (KDAA)
Tue 02:51:14 AM 38.8021 -77.3565 182° South 218 251 3,100 -875 Descending FlightAware ADS-B
Tue 02:51:45 AM 39.0008 -77.3492 North 211 243 2,600 -529 Descending FlightAware ADS-B (KDAA)
Tue 02:52:22 AM 39.0333 -77.3500 North 201 231 2,500 -291 Descending Potomac TRACON
Tue 02:53:28 AM 39.0667 -77.3833 322° Northwest 171 197 2,100 -381 Descending Potomac TRACON
Tue 02:54:28 AM 39.0500 -77.4333 247° West 160 184 1,700 -476 Descending Potomac TRACON
Tue 02:55:34 AM 39.0000 -77.4333 180° South 134 154 1,100 -444 Descending Potomac TRACON
Tue 02:57:37 AM 38.9211 -77.4372 182° South 139 160 300 -390 Descending Washington Center

Login

Don't have an account? Register now (free) for customized features, flight alerts, and more!